Time;durP1;ratioP1;P1;durP2;ratioP2;P2;SDS_P1;SDS_P2;PMS_P1;PMS_P2;Temp;Humidity;BMP_temperature;BMP_pressure;BME280_temperature;BME280_humidity;BME280_pressure;Samples;Min_cycle;Max_cycle;Signal;HPM_P1;HPM_P2
2021/09/06 00:02:04;;;;;;;47.08;37.38;;;24.00;98.20;;;;;;5055517;28;20036;-85
2021/09/06 00:04:31;;;;;;;45.97;37.80;;;24.00;98.20;;;;;;5054981;28;20032;-84
2021/09/06 00:06:56;;;;;;;45.78;37.95;;;24.00;98.20;;;;;;5056270;28;20060;-84
2021/09/06 00:09:22;;;;;;;47.40;38.78;;;24.00;98.20;;;;;;5054716;28;20086;-85
2021/09/06 00:11:47;;;;;;;48.28;39.30;;;24.00;98.20;;;;;;5055104;28;20112;-84
2021/09/06 00:14:13;;;;;;;49.42;40.58;;;24.00;98.20;;;;;;5055245;28;20025;-83
2021/09/06 00:16:39;;;;;;;49.90;39.95;;;24.00;98.20;;;;;;5054669;28;20033;-83
2021/09/06 00:19:04;;;;;;;53.15;43.17;;;24.00;98.20;;;;;;5056029;28;20087;-84
2021/09/06 00:21:32;;;;;;;52.85;41.15;;;24.00;98.20;;;;;;5021628;28;20025;-84
2021/09/06 00:23:58;;;;;;;51.28;42.70;;;24.00;98.50;;;;;;5056228;28;20032;-83
2021/09/06 00:26:24;;;;;;;53.92;43.15;;;24.00;98.30;;;;;;5055112;28;20103;-84
2021/09/06 00:28:49;;;;;;;55.55;44.20;;;24.00;98.30;;;;;;5056182;28;20116;-85
2021/09/06 00:31:15;;;;;;;54.83;44.38;;;24.00;98.30;;;;;;5038234;28;20475;-85
2021/09/06 00:33:43;;;;;;;52.25;43.10;;;24.00;98.30;;;;;;5055822;28;20021;-84
2021/09/06 00:36:09;;;;;;;54.78;43.97;;;24.00;98.30;;;;;;5055685;28;20502;-84
2021/09/06 00:38:35;;;;;;;55.78;44.33;;;24.00;98.30;;;;;;5055651;28;20036;-84
2021/09/06 00:41:01;;;;;;;58.05;46.88;;;24.00;98.30;;;;;;5055853;28;20025;-83
2021/09/06 00:43:26;;;;;;;53.70;44.17;;;24.00;98.30;;;;;;5054382;28;20032;-86
2021/09/06 00:45:52;;;;;;;57.60;45.85;;;24.00;98.30;;;;;;5055399;28;20462;-83
2021/09/06 00:48:18;;;;;;;57.75;45.80;;;24.00;98.30;;;;;;5054098;28;20028;-83
2021/09/06 00:50:48;;;;;;;59.63;47.10;;;24.00;98.30;;;;;;5055584;28;20021;-83
2021/09/06 00:53:15;;;;;;;60.05;47.03;;;24.00;98.30;;;;;;5055321;28;20017;-83
2021/09/06 00:55:41;;;;;;;57.38;45.78;;;24.00;98.30;;;;;;5055426;28;20027;-84
2021/09/06 00:58:07;;;;;;;58.42;46.47;;;24.00;98.30;;;;;;5054181;28;20124;-84
2021/09/06 01:00:33;;;;;;;60.70;48.45;;;24.00;98.30;;;;;;5037703;28;20079;-84
2021/09/06 01:02:58;;;;;;;60.30;46.95;;;24.00;98.30;;;;;;5037980;28;20033;-84
2021/09/06 01:05:24;;;;;;;58.78;46.47;;;24.00;98.30;;;;;;5054253;28;20363;-86
2021/09/06 01:07:50;;;;;;;57.65;47.35;;;24.00;98.40;;;;;;5055612;28;20029;-84
2021/09/06 01:10:16;;;;;;;59.88;48.05;;;24.00;98.40;;;;;;5037599;28;20032;-84
2021/09/06 01:12:42;;;;;;;58.92;46.35;;;24.00;98.40;;;;;;5020490;28;20029;-84
2021/09/06 01:15:09;;;;;;;60.08;48.88;;;24.00;98.40;;;;;;5054045;28;20025;-83
2021/09/06 01:17:36;;;;;;;59.10;47.15;;;24.00;98.40;;;;;;5054954;28;20029;-83
2021/09/06 01:20:03;;;;;;;57.65;46.97;;;24.00;98.40;;;;;;5054902;28;20379;-84
2021/09/06 01:22:28;;;;;;;58.72;47.30;;;24.00;98.40;;;;;;5054832;28;20185;-83
2021/09/06 01:24:54;;;;;;;55.42;45.70;;;23.90;98.40;;;;;;5053857;28;20472;-84
2021/09/06 01:27:20;;;;;;;58.78;47.30;;;23.90;98.40;;;;;;5054759;28;20490;-84
2021/09/06 01:29:46;;;;;;;57.40;47.40;;;24.00;98.40;;;;;;5036875;28;20459;-83
2021/09/06 01:32:12;;;;;;;60.25;47.63;;;24.00;98.40;;;;;;5054720;28;20036;-83
2021/09/06 01:34:38;;;;;;;58.33;47.85;;;24.00;98.40;;;;;;5054356;28;20025;-82
2021/09/06 01:37:04;;;;;;;60.17;48.47;;;24.00;98.40;;;;;;5053558;28;20419;-83
2021/09/06 01:39:30;;;;;;;58.95;48.00;;;24.00;98.40;;;;;;5053216;28;20029;-84
2021/09/06 01:41:56;;;;;;;57.67;47.25;;;24.00;98.40;;;;;;5053602;28;20047;-84
2021/09/06 01:44:21;;;;;;;54.63;45.45;;;24.00;98.40;;;;;;5054863;28;20514;-83
2021/09/06 01:46:47;;;;;;;55.00;46.25;;;24.00;98.40;;;;;;5054435;28;20415;-83
2021/09/06 01:49:13;;;;;;;56.60;46.40;;;24.00;98.40;;;;;;5053467;28;20429;-83
2021/09/06 01:51:39;;;;;;;55.80;46.30;;;24.00;98.50;;;;;;5054281;28;20447;-83
2021/09/06 01:54:05;;;;;;;54.97;47.00;;;24.00;98.50;;;;;;5054411;28;20052;-83
2021/09/06 01:56:31;;;;;;;56.75;46.28;;;24.00;98.50;;;;;;5054084;28;20481;-85
2021/09/06 01:58:57;;;;;;;58.58;46.53;;;24.00;98.50;;;;;;5019205;28;20035;-82
2021/09/06 02:01:23;;;;;;;56.00;45.58;;;24.00;98.50;;;;;;5053394;28;20059;-82
2021/09/06 02:03:49;;;;;;;57.78;46.65;;;24.00;98.50;;;;;;5052771;28;20028;-84
2021/09/06 02:06:15;;;;;;;56.83;45.88;;;24.00;98.50;;;;;;5052954;28;20463;-84
2021/09/06 02:08:41;;;;;;;56.10;46.40;;;24.00;98.50;;;;;;5036207;28;20094;-84
2021/09/06 02:11:07;;;;;;;58.30;46.53;;;24.00;98.50;;;;;;5053897;28;20032;-84
2021/09/06 02:13:32;;;;;;;56.88;45.50;;;24.00;98.50;;;;;;5036423;28;20029;-88
2021/09/06 02:15:58;;;;;;;55.75;45.97;;;24.00;98.50;;;;;;5052983;28;20025;-84
2021/09/06 02:18:24;;;;;;;56.08;45.75;;;24.00;98.50;;;;;;5052430;28;20029;-83
2021/09/06 02:20:50;;;;;;;53.17;44.58;;;24.00;98.70;;;;;;5054040;28;20370;-83
2021/09/06 02:23:15;;;;;;;53.08;43.45;;;24.00;98.50;;;;;;5036088;28;20033;-82
2021/09/06 02:25:41;;;;;;;53.15;43.42;;;24.00;98.50;;;;;;5035897;28;20029;-84
2021/09/06 02:28:07;;;;;;;56.15;45.03;;;24.00;98.50;;;;;;5053942;28;20454;-84
2021/09/06 02:30:33;;;;;;;55.78;44.97;;;24.00;98.50;;;;;;5052572;28;20021;-84
2021/09/06 02:32:58;;;;;;;52.38;43.58;;;24.00;98.50;;;;;;5053724;28;20099;-85
2021/09/06 02:35:24;;;;;;;54.80;44.22;;;24.00;98.50;;;;;;5053704;28;20032;-85
2021/09/06 02:37:50;;;;;;;53.30;43.90;;;24.00;98.50;;;;;;5053334;28;20075;-83
2021/09/06 02:40:17;;;;;;;53.50;43.90;;;24.00;98.50;;;;;;5053426;28;20422;-84
2021/09/06 02:42:43;;;;;;;50.50;41.72;;;24.00;98.50;;;;;;5053403;28;20021;-84
2021/09/06 02:45:09;;;;;;;51.42;42.95;;;24.00;98.50;;;;;;5052196;28;20043;-83
2021/09/06 02:47:35;;;;;;;50.38;42.63;;;23.90;98.50;;;;;;5053546;28;20082;-84
2021/09/06 02:50:04;;;;;;;49.28;41.08;;;24.00;98.50;;;;;;5053123;28;20404;-84
2021/09/06 02:52:31;;;;;;;51.95;42.42;;;24.00;98.50;;;;;;5052300;28;20090;-84
2021/09/06 02:54:57;;;;;;;50.72;43.03;;;24.00;98.50;;;;;;5051997;28;20032;-83
2021/09/06 02:57:22;;;;;;;54.45;43.20;;;24.00;98.50;;;;;;5052226;28;20029;-83
2021/09/06 02:59:48;;;;;;;51.42;42.35;;;24.00;98.50;;;;;;5053074;28;20114;-85
2021/09/06 03:02:14;;;;;;;49.22;41.28;;;24.00;98.50;;;;;;5035625;28;20025;-84
2021/09/06 03:04:39;;;;;;;50.63;41.70;;;24.00;98.50;;;;;;5052850;28;20045;-84
2021/09/06 03:07:05;;;;;;;54.38;42.47;;;24.00;98.50;;;;;;5052031;28;20028;-84
2021/09/06 03:09:32;;;;;;;51.15;40.47;;;24.00;98.50;;;;;;5051789;28;20031;-84
2021/09/06 03:11:57;;;;;;;51.97;40.58;;;24.00;98.50;;;;;;5052687;28;20033;-83
2021/09/06 03:14:23;;;;;;;50.95;41.33;;;24.00;98.50;;;;;;5052963;28;20044;-85
2021/09/06 03:16:50;;;;;;;50.55;40.92;;;24.00;98.50;;;;;;5051714;28;20343;-84
2021/09/06 03:19:16;;;;;;;49.88;41.97;;;24.00;98.60;;;;;;5051529;28;20107;-84
2021/09/06 03:21:43;;;;;;;51.30;41.95;;;24.00;98.50;;;;;;5035283;28;20072;-84
2021/09/06 03:24:09;;;;;;;52.22;42.53;;;24.00;98.60;;;;;;5035202;28;20060;-84
2021/09/06 03:26:35;;;;;;;53.40;43.28;;;24.00;98.60;;;;;;5052759;28;20025;-84
2021/09/06 03:29:01;;;;;;;49.97;41.58;;;24.00;98.60;;;;;;5034993;28;20558;-84
2021/09/06 03:31:26;;;;;;;50.35;42.00;;;24.00;98.60;;;;;;5052789;28;20021;-83
2021/09/06 03:33:52;;;;;;;49.53;41.83;;;24.00;98.60;;;;;;5051314;28;20375;-83
2021/09/06 03:36:19;;;;;;;48.85;40.67;;;24.00;98.60;;;;;;5051550;28;20036;-84
2021/09/06 03:38:45;;;;;;;51.15;41.78;;;24.00;98.60;;;;;;5051473;28;20033;-84
2021/09/06 03:41:11;;;;;;;49.97;40.97;;;24.00;98.60;;;;;;5051795;28;20031;-83
2021/09/06 03:43:37;;;;;;;49.88;40.70;;;24.00;98.60;;;;;;5052606;28;20433;-84
2021/09/06 03:46:02;;;;;;;50.83;41.92;;;24.00;98.60;;;;;;5052720;28;20029;-84
2021/09/06 03:48:28;;;;;;;51.03;41.15;;;24.00;98.60;;;;;;5034990;28;20037;-84
2021/09/06 03:50:54;;;;;;;49.55;40.28;;;24.00;98.60;;;;;;5051188;28;20055;-84
2021/09/06 03:53:19;;;;;;;51.03;41.50;;;24.00;98.60;;;;;;5051398;28;20491;-84
2021/09/06 03:55:45;;;;;;;46.95;39.78;;;24.00;98.60;;;;;;5051517;28;20036;-83
2021/09/06 03:58:10;;;;;;;48.03;40.35;;;24.00;98.60;;;;;;5052368;28;20028;-83
2021/09/06 04:00:36;;;;;;;51.17;41.75;;;24.00;98.60;;;;;;5051421;28;20451;-83
2021/09/06 04:03:02;;;;;;;47.13;39.55;;;24.00;98.60;;;;;;5052189;28;20079;-84
2021/09/06 04:05:27;;;;;;;47.88;39.83;;;24.00;98.60;;;;;;5051439;28;20032;-84
2021/09/06 04:07:53;;;;;;;48.10;38.55;;;24.00;98.60;;;;;;5018189;28;20415;-83
2021/09/06 04:10:19;;;;;;;48.53;38.25;;;24.00;98.60;;;;;;5018420;28;20025;-83
2021/09/06 04:12:44;;;;;;;46.65;39.92;;;24.00;98.60;;;;;;5033865;28;20104;-87
2021/09/06 04:15:11;;;;;;;46.78;39.03;;;24.00;98.60;;;;;;5050715;28;20036;-84
2021/09/06 04:17:37;;;;;;;49.90;40.00;;;24.00;98.60;;;;;;5051540;28;20028;-84
2021/09/06 04:20:05;;;;;;;45.75;38.28;;;24.00;98.60;;;;;;5050737;28;20055;-83
2021/09/06 04:22:32;;;;;;;50.22;39.83;;;24.00;98.70;;;;;;5054643;28;20024;-83
2021/09/06 04:25:00;;;;;;;45.22;38.28;;;23.90;98.60;;;;;;5056114;28;20021;-82
2021/09/06 04:27:25;;;;;;;45.97;38.03;;;23.90;98.60;;;;;;5056101;28;20056;-84
2021/09/06 04:29:51;;;;;;;45.92;37.47;;;23.90;98.60;;;;;;5054800;28;20500;-82
2021/09/06 04:32:17;;;;;;;45.47;36.85;;;23.90;98.60;;;;;;5054436;28;20047;-84
2021/09/06 04:34:42;;;;;;;45.28;36.90;;;23.90;98.60;;;;;;5054487;28;20501;-83
2021/09/06 04:37:08;;;;;;;44.40;35.60;;;23.90;98.60;;;;;;5036709;28;20017;-83
2021/09/06 04:39:34;;;;;;;44.75;35.75;;;23.90;98.60;;;;;;5055781;28;20025;-83
2021/09/06 04:41:59;;;;;;;42.70;34.05;;;23.90;98.60;;;;;;5055535;28;20218;-82
2021/09/06 04:44:25;;;;;;;43.40;35.05;;;23.90;98.60;;;;;;5037684;28;20025;-83
2021/09/06 04:46:51;;;;;;;42.90;35.80;;;23.90;98.60;;;;;;5054151;28;20067;-84
2021/09/06 04:49:17;;;;;;;43.17;34.78;;;23.90;98.60;;;;;;5054147;28;20513;-84
2021/09/06 04:51:43;;;;;;;39.83;34.33;;;23.90;98.60;;;;;;5054495;28;20515;-84
2021/09/06 04:54:08;;;;;;;42.65;33.83;;;23.90;98.60;;;;;;5037447;28;20052;-84
2021/09/06 04:56:37;;;;;;;42.45;34.70;;;23.90;98.60;;;;;;5054167;28;20029;-84
2021/09/06 04:59:04;;;;;;;42.33;34.25;;;24.00;98.60;;;;;;5053793;28;20040;-82
2021/09/06 05:01:30;;;;;;;43.05;34.42;;;23.90;98.60;;;;;;5054471;28;20031;-84
2021/09/06 05:03:55;;;;;;;40.53;33.17;;;24.00;98.60;;;;;;5053903;28;20023;-83
2021/09/06 05:06:21;;;;;;;42.95;34.80;;;24.00;98.60;;;;;;5055512;28;20622;-83
2021/09/06 05:08:46;;;;;;;43.58;34.55;;;24.00;98.60;;;;;;5054097;28;20029;-83
2021/09/06 05:11:12;;;;;;;42.80;34.70;;;23.90;98.60;;;;;;5054991;28;20347;-84
2021/09/06 05:13:38;;;;;;;41.95;33.75;;;24.00;98.60;;;;;;5054912;28;20524;-84
2021/09/06 05:16:03;;;;;;;43.10;34.75;;;24.00;98.60;;;;;;5037159;28;20485;-84
2021/09/06 05:18:29;;;;;;;43.00;35.05;;;24.00;98.60;;;;;;5036976;28;20128;-83
2021/09/06 05:20:55;;;;;;;45.53;35.85;;;24.00;98.60;;;;;;5054964;28;20017;-87
2021/09/06 05:23:21;;;;;;;43.10;35.10;;;24.00;98.60;;;;;;5053831;28;20031;-83
2021/09/06 05:25:47;;;;;;;42.15;34.65;;;24.00;98.50;;;;;;5036993;28;20029;-83
2021/09/06 05:28:13;;;;;;;40.03;33.10;;;23.90;98.40;;;;;;5051399;28;20020;-84
2021/09/06 05:30:39;;;;;;;40.53;32.97;;;23.90;98.40;;;;;;5053398;28;20025;-83
2021/09/06 05:33:04;;;;;;;38.05;30.90;;;23.90;98.30;;;;;;5052906;28;20025;-83
2021/09/06 05:35:30;;;;;;;40.65;32.03;;;23.90;98.30;;;;;;5037179;28;20107;-83
2021/09/06 05:37:56;;;;;;;37.13;29.63;;;23.90;98.20;;;;;;5053556;28;20029;-82
2021/09/06 05:40:22;;;;;;;37.20;29.38;;;23.80;98.20;;;;;;5053147;28;20024;-83
2021/09/06 05:42:47;;;;;;;32.80;27.98;;;23.80;98.20;;;;;;5053185;28;20036;-82
2021/09/06 05:45:13;;;;;;;32.88;27.58;;;23.80;98.20;;;;;;5054199;28;20478;-82
2021/09/06 05:47:39;;;;;;;31.50;25.63;;;23.80;98.20;;;;;;5036636;28;20057;-84
2021/09/06 05:50:05;;;;;;;32.13;26.38;;;23.80;98.20;;;;;;5036205;28;20029;-83
2021/09/06 05:52:30;;;;;;;32.55;25.20;;;23.70;98.20;;;;;;5054168;28;20063;-83
2021/09/06 05:54:56;;;;;;;28.65;23.92;;;23.70;98.20;;;;;;5054189;28;20589;-82
2021/09/06 05:57:23;;;;;;;25.75;22.63;;;23.70;98.30;;;;;;5052899;28;20021;-82
2021/09/06 05:59:50;;;;;;;28.15;22.60;;;23.70;98.30;;;;;;5053177;28;20029;-82
2021/09/06 06:02:16;;;;;;;27.17;21.48;;;23.70;98.30;;;;;;5054401;28;20091;-82
2021/09/06 06:04:42;;;;;;;24.42;20.95;;;23.70;98.40;;;;;;5036198;28;20053;-83
2021/09/06 06:07:08;;;;;;;23.98;20.30;;;23.70;98.40;;;;;;5052700;28;20079;-81
2021/09/06 06:09:33;;;;;;;21.92;18.80;;;23.70;98.40;;;;;;5052716;28;20029;-84
2021/09/06 06:11:59;;;;;;;24.38;19.13;;;23.80;98.40;;;;;;5054176;28;20075;-82
2021/09/06 06:14:25;;;;;;;26.95;20.92;;;23.80;98.40;;;;;;5053145;28;20367;-82
2021/09/06 06:16:51;;;;;;;24.17;20.08;;;23.80;98.40;;;;;;5052894;28;20033;-83
2021/09/06 06:19:17;;;;;;;26.48;19.33;;;23.80;98.40;;;;;;5053718;28;20135;-82
2021/09/06 06:21:43;;;;;;;21.85;17.80;;;23.90;98.40;;;;;;5053608;28;20033;-83
2021/09/06 06:24:09;;;;;;;21.20;17.75;;;23.90;98.30;;;;;;5019233;28;20021;-83
2021/09/06 06:26:34;;;;;;;23.63;19.23;;;23.90;98.30;;;;;;5054217;28;20443;-84
2021/09/06 06:29:00;;;;;;;20.25;16.65;;;23.90;98.30;;;;;;5052636;28;20044;-84
2021/09/06 06:31:26;;;;;;;20.77;17.30;;;23.90;98.30;;;;;;5053512;28;20083;-84
2021/09/06 06:33:52;;;;;;;20.63;16.90;;;24.00;98.30;;;;;;5052565;28;20104;-84
2021/09/06 06:36:18;;;;;;;19.73;17.30;;;24.00;98.30;;;;;;5052258;28;20151;-84
2021/09/06 06:38:45;;;;;;;20.42;16.92;;;24.00;98.30;;;;;;5053401;28;20036;-84
2021/09/06 06:41:11;;;;;;;18.40;15.40;;;24.00;98.30;;;;;;5051899;28;20029;-84
2021/09/06 06:43:37;;;;;;;20.45;15.25;;;24.00;98.20;;;;;;5035583;28;20082;-84
2021/09/06 06:46:03;;;;;;;19.83;16.35;;;24.00;98.20;;;;;;5053109;28;20028;-83
2021/09/06 06:48:28;;;;;;;20.02;14.85;;;24.00;98.20;;;;;;5052236;28;20021;-84
2021/09/06 06:50:54;;;;;;;19.08;15.02;;;24.10;98.20;;;;;;5052418;28;20056;-82
2021/09/06 06:53:20;;;;;;;16.95;14.02;;;24.10;98.20;;;;;;5035668;28;20031;-84
2021/09/06 06:55:46;;;;;;;17.00;14.02;;;24.10;98.10;;;;;;5035736;28;20060;-82
2021/09/06 06:58:12;;;;;;;18.73;13.95;;;24.10;98.20;;;;;;5051909;28;20366;-83
2021/09/06 07:00:37;;;;;;;17.77;14.13;;;24.10;98.10;;;;;;5052455;28;20041;-83
2021/09/06 07:03:03;;;;;;;16.10;13.50;;;24.10;98.20;;;;;;5052305;28;20029;-84
2021/09/06 07:05:29;;;;;;;16.95;13.38;;;24.10;98.10;;;;;;5051986;28;20457;-84
2021/09/06 07:07:54;;;;;;;17.02;12.93;;;24.10;98.10;;;;;;5053189;28;20107;-84
2021/09/06 07:10:20;;;;;;;14.27;12.10;;;24.10;98.20;;;;;;5052981;28;20463;-84
2021/09/06 07:12:47;;;;;;;14.95;12.52;;;24.10;98.20;;;;;;5035452;28;20025;-83
2021/09/06 07:15:13;;;;;;;15.43;12.10;;;24.10;98.20;;;;;;5051464;28;20115;-84
2021/09/06 07:17:38;;;;;;;16.17;12.05;;;24.10;98.20;;;;;;5051521;28;20100;-85
2021/09/06 07:20:05;;;;;;;13.35;10.90;;;24.10;98.20;;;;;;5052467;28;20053;-85
2021/09/06 07:22:30;;;;;;;13.10;11.65;;;24.10;98.20;;;;;;5052699;28;20037;-84
2021/09/06 07:24:56;;;;;;;14.07;12.10;;;24.10;98.20;;;;;;5035303;28;20025;-84
2021/09/06 07:27:22;;;;;;;14.65;11.77;;;24.10;98.20;;;;;;5034635;28;20033;-83
2021/09/06 07:29:48;;;;;;;12.40;11.10;;;24.10;98.20;;;;;;5052808;28;20040;-85
2021/09/06 07:32:14;;;;;;;13.82;11.55;;;24.10;98.20;;;;;;5034816;28;20021;-84
2021/09/06 07:34:40;;;;;;;13.95;11.75;;;24.10;98.20;;;;;;5035135;28;20497;-83
2021/09/06 07:37:07;;;;;;;13.00;11.48;;;24.10;98.20;;;;;;5051115;28;20056;-84
2021/09/06 07:39:33;;;;;;;12.48;11.18;;;24.10;98.20;;;;;;5051355;28;20032;-84
2021/09/06 07:42:00;;;;;;;15.10;11.50;;;24.10;98.20;;;;;;5052934;28;20083;-84
2021/09/06 07:44:26;;;;;;;14.93;11.75;;;24.20;98.20;;;;;;5051228;28;20075;-85
2021/09/06 07:46:52;;;;;;;15.15;11.73;;;24.20;98.20;;;;;;5052862;28;20455;-85
2021/09/06 07:49:18;;;;;;;14.48;12.27;;;24.20;98.20;;;;;;5034791;28;20036;-84
2021/09/06 07:51:51;;;;;;;15.85;11.85;;;24.20;98.20;;;;;;5052234;28;20090;-84
2021/09/06 07:54:17;;;;;;;15.02;12.32;;;24.20;98.20;;;;;;5051384;28;20017;-83
2021/09/06 07:56:46;;;;;;;14.13;11.65;;;24.20;98.20;;;;;;5054132;28;20029;-84
2021/09/06 07:59:13;;;;;;;13.35;11.90;;;24.20;98.20;;;;;;5053873;28;20037;-82
2021/09/06 08:01:39;;;;;;;13.90;11.57;;;24.20;98.20;;;;;;5055464;28;20114;-84
2021/09/06 08:04:05;;;;;;;18.65;13.80;;;24.20;98.20;;;;;;5022347;28;20131;-84
2021/09/06 08:06:31;;;;;;;14.30;11.52;;;24.20;98.20;;;;;;5055101;28;20438;-84
2021/09/06 08:08:57;;;;;;;15.05;12.02;;;24.20;98.20;;;;;;5056383;28;20455;-83
2021/09/06 08:11:22;;;;;;;13.63;10.93;;;24.20;98.20;;;;;;5054645;28;20044;-84
2021/09/06 08:13:48;;;;;;;14.63;11.05;;;24.20;98.20;;;;;;5056184;28;20025;-83
2021/09/06 08:16:15;;;;;;;15.63;12.20;;;24.20;98.20;;;;;;5056393;28;20025;-83
2021/09/06 08:18:41;;;;;;;17.23;12.75;;;24.20;98.30;;;;;;5055700;28;20080;-86
2021/09/06 08:21:07;;;;;;;14.32;12.13;;;24.10;98.40;;;;;;5054814;28;20091;-84
2021/09/06 08:23:33;;;;;;;16.50;12.75;;;24.10;98.40;;;;;;5055779;28;20021;-84
2021/09/06 08:25:59;;;;;;;14.23;11.80;;;24.10;98.50;;;;;;5056191;28;20017;-84
2021/09/06 08:28:24;;;;;;;13.20;11.30;;;24.10;98.50;;;;;;5054823;28;20508;-84
2021/09/06 08:30:50;;;;;;;14.57;11.50;;;24.10;98.50;;;;;;5054191;28;20055;-85
2021/09/06 08:33:16;;;;;;;12.77;10.90;;;24.10;98.50;;;;;;5054225;28;20071;-84
2021/09/06 08:35:42;;;;;;;12.52;9.73;;;24.10;98.50;;;;;;5036530;28;20025;-84
2021/09/06 08:38:08;;;;;;;13.18;11.15;;;24.10;98.50;;;;;;5054154;28;20028;-84
2021/09/06 08:40:34;;;;;;;13.20;10.75;;;24.10;98.50;;;;;;5053717;28;20044;-84
2021/09/06 08:43:04;;;;;;;16.70;10.45;;;24.10;98.50;;;;;;5055390;28;20036;-84
2021/09/06 08:45:36;;;;;;;13.05;10.43;;;24.10;98.50;;;;;;5054612;28;20029;-85
2021/09/06 08:48:02;;;;;;;13.73;10.70;;;24.10;98.50;;;;;;5054153;28;20021;-85
2021/09/06 08:50:28;;;;;;;12.15;10.60;;;24.20;98.50;;;;;;5037648;28;20063;-85
2021/09/06 08:52:54;;;;;;;12.70;10.55;;;24.20;98.50;;;;;;5055186;28;20029;-84
2021/09/06 08:55:20;;;;;;;15.95;11.70;;;24.20;98.50;;;;;;5055440;28;20020;-85
2021/09/06 08:57:47;;;;;;;14.07;10.90;;;24.20;98.50;;;;;;5055497;28;20028;-84
2021/09/06 09:00:13;;;;;;;13.40;10.70;;;24.20;98.50;;;;;;5055136;28;20033;-86
2021/09/06 09:02:42;;;;;;;12.63;11.00;;;24.20;98.40;;;;;;5055188;28;20025;-85
2021/09/06 09:05:10;;;;;;;14.98;11.07;;;24.20;98.40;;;;;;5054885;28;20025;-85
2021/09/06 09:07:39;;;;;;;13.43;10.70;;;24.30;98.50;;;;;;5036850;28;20025;-85
2021/09/06 09:10:08;;;;;;;12.63;10.10;;;24.30;98.40;;;;;;5054027;28;20179;-84
2021/09/06 09:12:36;;;;;;;13.90;10.73;;;24.30;98.40;;;;;;5055123;28;20021;-84
2021/09/06 09:15:02;;;;;;;11.82;9.82;;;24.30;98.40;;;;;;5055836;28;20021;-84
2021/09/06 09:17:28;;;;;;;14.38;10.07;;;24.30;98.50;;;;;;5053818;28;20029;-85
2021/09/06 09:20:00;;;;;;;12.85;10.38;;;24.30;98.40;;;;;;5055073;28;20045;-84
2021/09/06 09:22:35;;;;;;;15.50;10.93;;;24.30;98.40;;;;;;5053443;28;20115;-85
2021/09/06 09:25:10;;;;;;;11.60;10.35;;;24.30;98.40;;;;;;5055017;28;20112;-85
2021/09/06 09:27:37;;;;;;;;;;;24.30;98.40;;;;;;5055040;28;20096;-84
2021/09/06 09:30:11;;;;;;;13.73;10.65;;;24.40;98.50;;;;;;5054854;28;19900;-84
2021/09/06 09:32:37;;;;;;;13.85;10.63;;;24.40;98.50;;;;;;5046094;28;20112;-82
2021/09/06 09:35:07;;;;;;;14.30;9.88;;;24.30;98.50;;;;;;5053762;28;20116;-84
2021/09/06 09:37:34;;;;;;;10.68;9.20;;;24.30;98.50;;;;;;5053133;28;20048;-84
2021/09/06 09:40:05;;;;;;;11.38;9.18;;;24.40;98.50;;;;;;5053524;28;20063;-84
2021/09/06 09:42:31;;;;;;;13.02;10.05;;;24.30;98.40;;;;;;5052860;28;20028;-85
2021/09/06 09:44:59;;;;;;;11.75;9.50;;;24.40;98.40;;;;;;5053425;28;20416;-84
2021/09/06 09:47:26;;;;;;;14.63;10.00;;;24.40;98.40;;;;;;5036766;28;20029;-84
2021/09/06 09:49:53;;;;;;;12.98;9.93;;;24.40;98.40;;;;;;5053024;28;20025;-84
2021/09/06 09:52:21;;;;;;;10.45;8.93;;;24.40;98.40;;;;;;5054237;28;20021;-84
2021/09/06 09:54:54;;;;;;;10.63;8.77;;;24.40;98.40;;;;;;5052931;28;20052;-84
2021/09/06 09:57:26;;;;;;;12.00;9.40;;;24.40;98.40;;;;;;5037346;28;20028;-84
2021/09/06 09:59:52;;;;;;;11.95;9.02;;;24.40;98.40;;;;;;5054037;28;20033;-84
2021/09/06 10:02:24;;;;;;;9.25;8.27;;;24.40;98.40;;;;;;5054541;28;20032;-84
2021/09/06 10:05:01;;;;;;;12.15;9.63;;;24.40;98.40;;;;;;5054203;28;20545;-85
2021/09/06 10:07:41;;;;;;;10.27;9.00;;;24.40;98.40;;;;;;5053173;28;20033;-84
2021/09/06 10:10:18;;;;;;;10.85;8.90;;;24.40;98.40;;;;;;5052964;28;20036;-85
2021/09/06 10:13:00;;;;;;;11.43;9.38;;;24.40;98.40;;;;;;5053965;28;20013;-84
2021/09/06 10:15:26;;;;;;;10.85;8.27;;;24.40;98.60;;;;;;5053163;28;20052;-85
2021/09/06 10:17:52;;;;;;;11.30;8.63;;;24.40;98.30;;;;;;5053361;28;20447;-85
2021/09/06 10:20:24;;;;;;;10.65;9.10;;;24.40;98.30;;;;;;5018889;28;20493;-85
2021/09/06 10:23:13;;;;;;;10.48;8.70;;;24.40;98.30;;;;;;5036292;28;20418;-87
2021/09/06 10:25:40;;;;;;;9.32;8.25;;;24.40;98.30;;;;;;5036282;28;20039;-85
2021/09/06 10:28:08;;;;;;;9.10;8.18;;;24.40;98.30;;;;;;5053287;28;20035;-86
2021/09/06 10:30:46;;;;;;;9.95;8.15;;;24.40;98.30;;;;;;5053572;28;20029;-87
2021/09/06 10:33:38;;;;;;;11.48;8.38;;;24.40;98.30;;;;;;5052737;28;20017;-85
2021/09/06 10:36:10;;;;;;;10.30;7.90;;;24.40;98.30;;;;;;5053778;28;20017;-85
2021/09/06 10:38:51;;;;;;;8.82;7.55;;;24.40;98.30;;;;;;5052295;28;20100;-85
2021/09/06 10:41:19;;;;;;;9.65;8.05;;;24.40;98.30;;;;;;5052100;28;20036;-86
2021/09/06 10:43:50;;;;;;;10.90;8.07;;;24.40;98.30;;;;;;5051911;28;20039;-85
2021/09/06 10:46:20;;;;;;;8.55;7.53;;;24.40;98.20;;;;;;5053339;28;20451;-86
2021/09/06 10:48:46;;;;;;;10.35;7.78;;;24.50;98.30;;;;;;5052968;28;20033;-86
2021/09/06 10:51:11;;;;;;;10.32;7.40;;;24.50;98.30;;;;;;5052097;28;20025;-83
2021/09/06 10:53:38;;;;;;;9.07;7.47;;;24.50;98.20;;;;;;5051903;28;20385;-85
2021/09/06 10:56:06;;;;;;;9.65;7.88;;;24.40;98.20;;;;;;5053108;28;20017;-85
2021/09/06 10:58:32;;;;;;;8.60;7.70;;;24.50;98.20;;;;;;5052003;28;20024;-83
2021/09/06 11:01:05;;;;;;;10.00;8.50;;;24.40;98.20;;;;;;5053142;28;20029;-85
2021/09/06 11:03:38;;;;;;;12.02;8.32;;;24.50;98.20;;;;;;5053065;28;20492;-85
2021/09/06 11:06:04;;;;;;;8.75;7.75;;;24.40;98.20;;;;;;5052277;28;20459;-86
2021/09/06 11:08:35;;;;;;;9.10;7.82;;;24.40;98.10;;;;;;5052263;28;20033;-84
2021/09/06 11:11:07;;;;;;;9.73;7.93;;;24.50;98.20;;;;;;5052842;28;20106;-85
2021/09/06 11:13:45;;;;;;;9.05;7.95;;;24.40;98.10;;;;;;5053115;28;20031;-84
2021/09/06 11:16:12;;;;;;;10.00;7.93;;;24.40;98.20;;;;;;5052831;28;20035;-84
2021/09/06 11:18:41;;;;;;;8.55;7.55;;;24.40;98.10;;;;;;5052590;28;20049;-85
2021/09/06 11:21:07;;;;;;;8.82;7.50;;;24.40;98.10;;;;;;5053053;28;20029;-86
2021/09/06 11:23:36;;;;;;;8.70;7.32;;;24.40;98.10;;;;;;5053135;28;20033;-85
2021/09/06 11:26:03;;;;;;;8.75;7.75;;;24.40;98.10;;;;;;5051560;28;20025;-85
2021/09/06 11:28:29;;;;;;;8.48;7.00;;;24.50;98.10;;;;;;5051902;28;20028;-84
2021/09/06 11:30:55;;;;;;;9.57;7.90;;;24.50;98.10;;;;;;5051162;28;20558;-85
2021/09/06 11:33:21;;;;;;;8.15;6.88;;;24.40;98.10;;;;;;5035356;28;20029;-85
2021/09/06 11:35:48;;;;;;;11.77;7.68;;;24.50;98.10;;;;;;5052580;28;20029;-85
2021/09/06 11:38:15;;;;;;;13.02;7.95;;;24.50;98.10;;;;;;5052921;28;20072;-84
2021/09/06 11:40:42;;;;;;;10.80;8.10;;;24.50;98.10;;;;;;5053144;28;20041;-86
2021/09/06 11:43:09;;;;;;;9.43;7.93;;;24.50;98.00;;;;;;5035870;28;20033;-84
2021/09/06 11:45:36;;;;;;;10.30;8.05;;;24.50;98.00;;;;;;5052801;28;20070;-84
2021/09/06 11:48:04;;;;;;;10.48;8.23;;;24.50;98.00;;;;;;5018474;28;20154;-85
2021/09/06 11:50:33;;;;;;;8.73;7.82;;;24.50;98.00;;;;;;5052513;28;20040;-85
2021/09/06 11:53:04;;;;;;;9.25;7.10;;;24.50;98.00;;;;;;5052714;28;20020;-85
2021/09/06 11:55:30;;;;;;;8.18;7.32;;;24.50;98.00;;;;;;5052539;28;20358;-85
2021/09/06 11:58:13;;;;;;;8.43;7.53;;;24.50;97.90;;;;;;5051236;28;20024;-85
2021/09/06 12:00:40;;;;;;;9.70;7.70;;;24.50;97.90;;;;;;5034781;28;20032;-85
2021/09/06 12:03:07;;;;;;;8.73;7.63;;;24.50;97.90;;;;;;5051112;28;20401;-85
2021/09/06 12:05:38;;;;;;;8.25;7.10;;;24.50;97.90;;;;;;5051428;28;20037;-84
2021/09/06 12:08:09;;;;;;;8.32;7.40;;;24.50;97.90;;;;;;5051298;28;20039;-85
2021/09/06 12:10:35;;;;;;;7.95;6.65;;;24.50;97.90;;;;;;5053066;28;20063;-85
2021/09/06 12:13:08;;;;;;;9.13;7.10;;;24.50;97.90;;;;;;5052240;28;20053;-85
2021/09/06 12:15:50;;;;;;;10.65;8.15;;;24.50;97.90;;;;;;5051782;28;20362;-84
2021/09/06 12:18:16;;;;;;;9.00;7.72;;;24.50;97.90;;;;;;5052163;28;20114;-85
2021/09/06 12:20:44;;;;;;;8.68;7.47;;;24.50;97.90;;;;;;5051196;28;20035;-85
2021/09/06 12:23:12;;;;;;;8.18;7.35;;;24.50;97.90;;;;;;5034743;28;20083;-85
2021/09/06 12:25:42;;;;;;;8.45;7.50;;;24.60;97.90;;;;;;5052716;28;20051;-86
2021/09/06 12:28:11;;;;;;;8.60;7.63;;;24.50;98.10;;;;;;5052201;28;20028;-85
2021/09/06 12:30:37;;;;;;;8.23;6.95;;;24.50;97.90;;;;;;5051213;28;20119;-85